createdAt,value
2023-05-13T00:00:01.378Z,17.0
2023-05-13T00:10:01.115Z,17.0
2023-05-13T00:30:01.161Z,16.7
2023-05-13T00:40:01.196Z,16.5
2023-05-13T00:50:01.522Z,16.3
2023-05-13T01:00:01.274Z,16.5
2023-05-13T01:10:01.217Z,16.3
2023-05-13T01:20:01.185Z,16.3
2023-05-13T01:30:01.176Z,16.6
2023-05-13T01:40:01.131Z,15.9
2023-05-13T01:50:01.169Z,15.9
2023-05-13T02:00:01.234Z,16.1
2023-05-13T02:10:01.194Z,15.6
2023-05-13T02:20:01.183Z,15.8
2023-05-13T02:30:01.191Z,15.8
2023-05-13T02:40:01.181Z,15.6
2023-05-13T02:50:01.167Z,15.6
2023-05-13T03:00:01.141Z,15.9
2023-05-13T03:10:01.189Z,15.6
2023-05-13T03:20:01.263Z,15.3
2023-05-13T03:30:01.155Z,15.0
2023-05-13T03:50:01.125Z,14.8
2023-05-13T04:00:01.222Z,14.6
2023-05-13T04:10:01.095Z,14.9
2023-05-13T04:20:01.209Z,14.7
2023-05-13T04:30:01.168Z,15.2
2023-05-13T04:40:01.171Z,15.0
2023-05-13T04:50:01.170Z,15.2
2023-05-13T05:00:01.201Z,15.3
2023-05-13T05:10:01.139Z,15.7
2023-05-13T05:20:01.224Z,15.8
2023-05-13T05:30:01.167Z,16.1
2023-05-13T05:40:01.219Z,16.2
2023-05-13T05:50:01.196Z,16.5
2023-05-13T06:00:01.215Z,17.0
2023-05-13T06:10:01.219Z,17.4
2023-05-13T06:20:01.204Z,17.7
2023-05-13T06:30:01.167Z,18.2
2023-05-13T06:40:01.267Z,19.0
2023-05-13T06:50:01.168Z,19.5
2023-05-13T07:00:01.239Z,19.8
2023-05-13T07:10:01.203Z,20.1
2023-05-13T07:20:01.182Z,20.9
2023-05-13T07:30:01.117Z,20.8
2023-05-13T07:50:01.191Z,21.1
2023-05-13T08:00:01.231Z,20.9
2023-05-13T08:10:01.179Z,21.1
2023-05-13T08:20:01.205Z,21.4
2023-05-13T08:30:01.147Z,22.0
2023-05-13T08:40:01.203Z,21.5
2023-05-13T08:50:01.129Z,21.1
2023-05-13T09:00:01.248Z,21.9
2023-05-13T09:10:01.170Z,21.6
2023-05-13T09:20:01.282Z,21.8
2023-05-13T09:30:01.134Z,22.1
2023-05-13T09:40:01.144Z,22.9
2023-05-13T09:50:01.151Z,23.4
2023-05-13T10:00:01.314Z,23.1
2023-05-13T10:10:01.173Z,22.8
2023-05-13T10:20:02.500Z,23.0
2023-05-13T10:30:03.128Z,24.0
2023-05-13T10:40:01.270Z,24.4
2023-05-13T10:50:01.111Z,25.4
2023-05-13T11:00:01.197Z,25.8
2023-05-13T11:10:01.175Z,26.4
2023-05-13T11:30:01.197Z,27.0
2023-05-13T11:40:01.218Z,26.5
2023-05-13T11:50:01.113Z,26.1
2023-05-13T12:00:01.257Z,26.9
2023-05-13T12:10:01.179Z,27.9
2023-05-13T12:20:01.216Z,27.3
2023-05-13T12:30:01.176Z,28.4
2023-05-13T12:40:01.232Z,27.3
2023-05-13T12:50:01.163Z,28.8
2023-05-13T13:00:01.189Z,27.8
2023-05-13T13:10:01.141Z,30.5
2023-05-13T13:20:01.181Z,29.8
2023-05-13T13:30:01.189Z,28.9
2023-05-13T13:40:01.325Z,29.5
2023-05-13T13:50:01.454Z,30.1
2023-05-13T14:00:01.241Z,27.6
2023-05-13T14:10:01.586Z,28.1
2023-05-13T14:20:01.216Z,25.4
2023-05-13T14:30:01.116Z,24.5
2023-05-13T14:40:01.215Z,29.3
2023-05-13T14:50:01.190Z,31.1
2023-05-13T15:00:01.253Z,28.4
2023-05-13T15:10:01.170Z,29.3
2023-05-13T15:20:01.136Z,30.4
2023-05-13T15:30:01.109Z,28.5
2023-05-13T15:40:01.177Z,26.5
2023-05-13T15:50:01.124Z,24.9
2023-05-13T16:00:01.315Z,24.0
2023-05-13T16:10:01.168Z,22.9
2023-05-13T16:20:01.190Z,22.3
2023-05-13T16:30:01.236Z,22.5
2023-05-13T16:40:01.242Z,21.8
2023-05-13T16:50:01.121Z,21.7
2023-05-13T17:10:00.505Z,23.7
2023-05-13T17:30:01.150Z,22.3
2023-05-13T17:40:01.261Z,21.8
2023-05-13T17:50:01.152Z,21.4
2023-05-13T18:00:01.241Z,21.0
2023-05-13T18:10:01.158Z,21.0
2023-05-13T18:20:01.168Z,20.5
2023-05-13T18:30:01.204Z,20.4
2023-05-13T18:40:01.175Z,20.1
2023-05-13T18:50:01.096Z,19.6
2023-05-13T19:00:01.333Z,19.7
2023-05-13T19:10:01.147Z,19.4
2023-05-13T19:20:01.227Z,19.0
2023-05-13T19:30:01.171Z,18.6
2023-05-13T19:40:01.177Z,18.6
2023-05-13T19:50:01.159Z,18.5
2023-05-13T20:00:01.307Z,18.5
2023-05-13T20:10:01.168Z,18.3
2023-05-13T20:20:01.250Z,18.2
2023-05-13T20:30:01.147Z,18.0
2023-05-13T20:40:01.179Z,18.0
2023-05-13T20:50:01.232Z,17.5
2023-05-13T21:00:01.324Z,17.6
2023-05-13T21:10:01.133Z,17.4
2023-05-13T21:20:01.148Z,17.6
2023-05-13T21:30:01.236Z,17.4
2023-05-13T21:40:01.209Z,17.4
2023-05-13T21:50:01.177Z,17.4
2023-05-13T22:00:01.370Z,17.4
2023-05-13T22:10:01.230Z,17.1
2023-05-13T22:20:01.221Z,17.0
2023-05-13T22:30:01.183Z,16.8
2023-05-13T22:40:01.219Z,16.9
2023-05-13T22:50:01.214Z,16.8
2023-05-13T23:00:01.315Z,16.5
2023-05-13T23:10:01.180Z,16.6
2023-05-13T23:20:01.206Z,16.4
2023-05-13T23:30:01.165Z,16.4
2023-05-13T23:40:01.209Z,16.4
2023-05-13T23:50:01.194Z,16.5
